sensor_id;sensor_type;location;lat;lon;timestamp;pressure;altitude;pressure_sealevel;temperature;humidity
39105;BME280;46464;51.154;13.812;2022-10-19T00:01:56;100320.28;;;11.42;100.00
39105;BME280;46464;51.154;13.812;2022-10-19T00:04:23;100324.13;;;11.35;100.00
39105;BME280;46464;51.154;13.812;2022-10-19T00:06:49;100319.88;;;11.28;100.00
39105;BME280;46464;51.154;13.812;2022-10-19T00:09:16;100314.78;;;11.20;100.00
39105;BME280;46464;51.154;13.812;2022-10-19T00:11:44;100314.97;;;11.14;100.00
39105;BME280;46464;51.154;13.812;2022-10-19T00:14:15;100325.97;;;11.06;100.00
39105;BME280;46464;51.154;13.812;2022-10-19T00:16:43;100322.38;;;11.07;100.00
39105;BME280;46464;51.154;13.812;2022-10-19T00:19:11;100322.53;;;11.03;100.00
39105;BME280;46464;51.154;13.812;2022-10-19T00:21:38;100331.31;;;11.08;100.00
39105;BME280;46464;51.154;13.812;2022-10-19T00:24:05;100328.63;;;11.08;100.00
39105;BME280;46464;51.154;13.812;2022-10-19T00:26:32;100328.47;;;11.12;100.00
39105;BME280;46464;51.154;13.812;2022-10-19T00:28:59;100334.72;;;11.13;100.00
39105;BME280;46464;51.154;13.812;2022-10-19T00:31:25;100332.75;;;11.18;100.00
39105;BME280;46464;51.154;13.812;2022-10-19T00:33:52;100335.56;;;11.15;100.00
39105;BME280;46464;51.154;13.812;2022-10-19T00:36:21;100330.22;;;11.13;100.00
39105;BME280;46464;51.154;13.812;2022-10-19T00:38:48;100327.72;;;11.09;100.00
39105;BME280;46464;51.154;13.812;2022-10-19T00:41:15;100338.47;;;11.09;100.00
39105;BME280;46464;51.154;13.812;2022-10-19T00:46:18;100335.22;;;10.97;100.00
39105;BME280;46464;51.154;13.812;2022-10-19T00:48:44;100329.19;;;10.91;100.00
39105;BME280;46464;51.154;13.812;2022-10-19T00:51:11;100333.00;;;10.84;100.00
39105;BME280;46464;51.154;13.812;2022-10-19T00:53:38;100343.97;;;10.77;100.00
39105;BME280;46464;51.154;13.812;2022-10-19T00:56:04;100336.81;;;10.76;100.00
39105;BME280;46464;51.154;13.812;2022-10-19T00:58:33;100330.72;;;10.71;100.00
39105;BME280;46464;51.154;13.812;2022-10-19T01:01:00;100328.28;;;10.63;100.00
39105;BME280;46464;51.154;13.812;2022-10-19T01:03:27;100329.41;;;10.56;100.00
39105;BME280;46464;51.154;13.812;2022-10-19T01:05:54;100326.88;;;10.52;100.00
39105;BME280;46464;51.154;13.812;2022-10-19T01:08:21;100328.00;;;10.44;100.00
39105;BME280;46464;51.154;13.812;2022-10-19T01:13:24;100328.44;;;10.29;100.00
39105;BME280;46464;51.154;13.812;2022-10-19T01:15:56;100322.47;;;10.19;100.00
39105;BME280;46464;51.154;13.812;2022-10-19T01:18:49;100313.81;;;10.09;100.00
39105;BME280;46464;51.154;13.812;2022-10-19T01:21:27;100317.56;;;10.04;100.00
39105;BME280;46464;51.154;13.812;2022-10-19T01:27:26;100312.69;;;9.87;100.00
39105;BME280;46464;51.154;13.812;2022-10-19T01:31:59;100309.69;;;9.67;100.00
39105;BME280;46464;51.154;13.812;2022-10-19T01:34:32;100308.09;;;9.60;100.00
39105;BME280;46464;51.154;13.812;2022-10-19T01:37:03;100310.94;;;9.54;100.00
39105;BME280;46464;51.154;13.812;2022-10-19T01:39:51;100304.84;;;9.47;100.00
39105;BME280;46464;51.154;13.812;2022-10-19T01:44:51;100318.47;;;9.40;100.00
39105;BME280;46464;51.154;13.812;2022-10-19T01:48:06;100315.00;;;9.36;100.00
39105;BME280;46464;51.154;13.812;2022-10-19T01:50:16;100315.13;;;9.31;100.00
39105;BME280;46464;51.154;13.812;2022-10-19T01:52:44;100312.59;;;9.27;100.00
39105;BME280;46464;51.154;13.812;2022-10-19T01:55:12;100323.38;;;9.24;100.00
39105;BME280;46464;51.154;13.812;2022-10-19T01:57:42;100333.28;;;9.22;100.00
39105;BME280;46464;51.154;13.812;2022-10-19T02:00:11;100319.94;;;9.18;100.00
39105;BME280;46464;51.154;13.812;2022-10-19T02:02:42;100312.00;;;9.14;100.00
39105;BME280;46464;51.154;13.812;2022-10-19T02:05:10;100309.44;;;9.11;100.00
39105;BME280;46464;51.154;13.812;2022-10-19T02:07:38;100309.50;;;9.08;100.00
39105;BME280;46464;51.154;13.812;2022-10-19T02:10:05;100307.78;;;9.05;100.00
39105;BME280;46464;51.154;13.812;2022-10-19T02:12:32;100302.53;;;9.00;100.00
39105;BME280;46464;51.154;13.812;2022-10-19T02:15:00;100311.47;;;9.01;100.00
39105;BME280;46464;51.154;13.812;2022-10-19T02:17:33;100308.66;;;9.06;100.00
39105;BME280;46464;51.154;13.812;2022-10-19T02:20:01;100303.31;;;9.06;100.00
39105;BME280;46464;51.154;13.812;2022-10-19T02:22:28;100303.31;;;9.06;100.00
39105;BME280;46464;51.154;13.812;2022-10-19T02:24:54;100296.94;;;9.10;100.00
39105;BME280;46464;51.154;13.812;2022-10-19T02:27:21;100298.66;;;9.12;100.00
39105;BME280;46464;51.154;13.812;2022-10-19T02:29:47;100294.78;;;9.23;100.00
39105;BME280;46464;51.154;13.812;2022-10-19T02:32:14;100300.75;;;9.34;100.00
39105;BME280;46464;51.154;13.812;2022-10-19T02:34:41;100302.44;;;9.38;100.00
39105;BME280;46464;51.154;13.812;2022-10-19T02:37:07;100300.69;;;9.37;100.00
39105;BME280;46464;51.154;13.812;2022-10-19T02:39:34;100306.88;;;9.39;100.00
39105;BME280;46464;51.154;13.812;2022-10-19T02:44:35;100305.13;;;9.38;100.00
39105;BME280;46464;51.154;13.812;2022-10-19T02:47:17;100307.06;;;9.33;100.00
39105;BME280;46464;51.154;13.812;2022-10-19T02:49:46;100306.16;;;9.32;100.00
39105;BME280;46464;51.154;13.812;2022-10-19T02:52:12;100311.72;;;9.25;100.00
39105;BME280;46464;51.154;13.812;2022-10-19T02:54:40;100318.00;;;9.24;100.00
39105;BME280;46464;51.154;13.812;2022-10-19T02:57:18;100304.50;;;9.28;100.00
39105;BME280;46464;51.154;13.812;2022-10-19T02:59:45;100301.72;;;9.31;100.00
39105;BME280;46464;51.154;13.812;2022-10-19T03:02:12;100304.38;;;9.31;100.00
39105;BME280;46464;51.154;13.812;2022-10-19T03:04:39;100307.84;;;9.36;100.00
39105;BME280;46464;51.154;13.812;2022-10-19T03:07:10;100297.25;;;9.32;100.00
39105;BME280;46464;51.154;13.812;2022-10-19T03:09:37;100295.47;;;9.31;100.00
39105;BME280;46464;51.154;13.812;2022-10-19T03:12:03;100294.41;;;9.38;100.00
39105;BME280;46464;51.154;13.812;2022-10-19T03:14:30;100294.47;;;9.35;100.00
39105;BME280;46464;51.154;13.812;2022-10-19T03:16:56;100306.09;;;9.34;100.00
39105;BME280;46464;51.154;13.812;2022-10-19T03:19:22;100302.38;;;9.40;100.00
39105;BME280;46464;51.154;13.812;2022-10-19T03:21:49;100298.75;;;9.42;100.00
39105;BME280;46464;51.154;13.812;2022-10-19T03:24:16;100301.72;;;9.31;100.00
39105;BME280;46464;51.154;13.812;2022-10-19T03:26:42;100291.84;;;9.33;100.00
39105;BME280;46464;51.154;13.812;2022-10-19T03:29:09;100295.38;;;9.34;100.00
39105;BME280;46464;51.154;13.812;2022-10-19T03:31:35;100300.78;;;9.32;100.00
39105;BME280;46464;51.154;13.812;2022-10-19T03:34:02;100292.69;;;9.35;100.00
39105;BME280;46464;51.154;13.812;2022-10-19T03:36:30;100292.34;;;9.46;100.00
39105;BME280;46464;51.154;13.812;2022-10-19T03:38:57;100298.63;;;9.47;100.00
39105;BME280;46464;51.154;13.812;2022-10-19T03:41:25;100294.28;;;9.43;100.00
39105;BME280;46464;51.154;13.812;2022-10-19T03:43:52;100305.78;;;9.46;100.00
39105;BME280;46464;51.154;13.812;2022-10-19T03:46:19;100307.53;;;9.49;100.00
39105;BME280;46464;51.154;13.812;2022-10-19T03:48:46;100313.66;;;9.52;100.00
39105;BME280;46464;51.154;13.812;2022-10-19T03:51:13;100306.63;;;9.48;100.00
39105;BME280;46464;51.154;13.812;2022-10-19T03:53:40;100315.69;;;9.44;100.00
39105;BME280;46464;51.154;13.812;2022-10-19T03:56:08;100306.78;;;9.42;100.00
39105;BME280;46464;51.154;13.812;2022-10-19T03:58:35;100315.63;;;9.46;100.00
39105;BME280;46464;51.154;13.812;2022-10-19T04:01:05;100305.88;;;9.43;100.00
39105;BME280;46464;51.154;13.812;2022-10-19T04:03:31;100304.31;;;9.34;100.00
39105;BME280;46464;51.154;13.812;2022-10-19T04:06:05;100305.88;;;9.43;100.00
39105;BME280;46464;51.154;13.812;2022-10-19T04:08:32;100309.56;;;9.39;100.00
39105;BME280;46464;51.154;13.812;2022-10-19T04:10:59;100314.09;;;9.37;100.00
39105;BME280;46464;51.154;13.812;2022-10-19T04:13:26;100317.69;;;9.36;100.00
39105;BME280;46464;51.154;13.812;2022-10-19T04:15:52;100313.16;;;9.38;100.00
39105;BME280;46464;51.154;13.812;2022-10-19T04:18:19;100310.56;;;9.35;100.00
39105;BME280;46464;51.154;13.812;2022-10-19T04:20:45;100324.88;;;9.35;100.00
39105;BME280;46464;51.154;13.812;2022-10-19T04:23:12;100321.25;;;9.36;100.00
39105;BME280;46464;51.154;13.812;2022-10-19T04:25:38;100327.78;;;9.26;100.00
39105;BME280;46464;51.154;13.812;2022-10-19T04:28:05;100322.38;;;9.28;100.00
39105;BME280;46464;51.154;13.812;2022-10-19T04:30:32;100329.53;;;9.27;100.00
39105;BME280;46464;51.154;13.812;2022-10-19T04:32:58;100326.91;;;9.26;100.00
39105;BME280;46464;51.154;13.812;2022-10-19T04:35:25;100329.53;;;9.27;100.00
39105;BME280;46464;51.154;13.812;2022-10-19T04:37:51;100326.84;;;9.27;100.00
39105;BME280;46464;51.154;13.812;2022-10-19T04:40:17;100326.78;;;9.30;100.00
39105;BME280;46464;51.154;13.812;2022-10-19T04:42:44;100332.16;;;9.30;100.00
39105;BME280;46464;51.154;13.812;2022-10-19T04:45:11;100328.69;;;9.25;100.00
39105;BME280;46464;51.154;13.812;2022-10-19T04:47:37;100334.06;;;9.25;100.00
39105;BME280;46464;51.154;13.812;2022-10-19T04:50:04;100333.88;;;9.31;100.00
39105;BME280;46464;51.154;13.812;2022-10-19T04:52:30;100330.34;;;9.31;100.00
39105;BME280;46464;51.154;13.812;2022-10-19T04:54:57;100337.53;;;9.29;100.00
39105;BME280;46464;51.154;13.812;2022-10-19T04:57:23;100334.75;;;9.33;100.00
39105;BME280;46464;51.154;13.812;2022-10-19T04:59:49;100335.75;;;9.28;100.00
39105;BME280;46464;51.154;13.812;2022-10-19T05:02:16;100341.06;;;9.31;100.00
39105;BME280;46464;51.154;13.812;2022-10-19T05:04:42;100344.59;;;9.33;100.00
39105;BME280;46464;51.154;13.812;2022-10-19T05:07:10;100340.97;;;9.34;100.00
39105;BME280;46464;51.154;13.812;2022-10-19T05:09:36;100341.00;;;9.32;100.00
39105;BME280;46464;51.154;13.812;2022-10-19T05:12:05;100342.06;;;9.27;100.00
39105;BME280;46464;51.154;13.812;2022-10-19T05:14:32;100348.41;;;9.24;100.00
39105;BME280;46464;51.154;13.812;2022-10-19T05:17:03;100339.41;;;9.25;100.00
39105;BME280;46464;51.154;13.812;2022-10-19T05:19:29;100339.13;;;9.36;100.00
39105;BME280;46464;51.154;13.812;2022-10-19T05:21:55;100335.66;;;9.32;100.00
39105;BME280;46464;51.154;13.812;2022-10-19T05:24:22;100330.06;;;9.40;100.00
39105;BME280;46464;51.154;13.812;2022-10-19T05:26:48;100331.94;;;9.38;100.00
39105;BME280;46464;51.154;13.812;2022-10-19T05:29:15;100337.50;;;9.30;100.00
39105;BME280;46464;51.154;13.812;2022-10-19T05:31:41;100330.59;;;9.22;100.00
39105;BME280;46464;51.154;13.812;2022-10-19T05:34:08;100336.81;;;9.22;100.00
39105;BME280;46464;51.154;13.812;2022-10-19T05:36:36;100342.34;;;9.16;100.00
39105;BME280;46464;51.154;13.812;2022-10-19T05:39:04;100338.16;;;9.06;100.00
39105;BME280;46464;51.154;13.812;2022-10-19T05:41:31;100343.63;;;9.01;100.00
39105;BME280;46464;51.154;13.812;2022-10-19T05:43:58;100343.69;;;8.98;100.00
39105;BME280;46464;51.154;13.812;2022-10-19T05:46:26;100340.84;;;9.04;100.00
39105;BME280;46464;51.154;13.812;2022-10-19T05:48:53;100336.53;;;8.98;100.00
39105;BME280;46464;51.154;13.812;2022-10-19T05:51:21;100348.28;;;8.93;100.00
39105;BME280;46464;51.154;13.812;2022-10-19T05:53:47;100351.16;;;8.85;100.00
39105;BME280;46464;51.154;13.812;2022-10-19T05:56:15;100353.78;;;8.86;100.00
39105;BME280;46464;51.154;13.812;2022-10-19T05:58:42;100362.53;;;8.95;100.00
39105;BME280;46464;51.154;13.812;2022-10-19T06:01:08;100349.03;;;8.99;100.00
39105;BME280;46464;51.154;13.812;2022-10-19T06:03:35;100348.06;;;9.02;100.00
39105;BME280;46464;51.154;13.812;2022-10-19T06:06:04;100347.22;;;9.00;100.00
39105;BME280;46464;51.154;13.812;2022-10-19T06:08:31;100346.47;;;8.95;100.00
39105;BME280;46464;51.154;13.812;2022-10-19T06:11:05;100341.84;;;9.00;100.00
39105;BME280;46464;51.154;13.812;2022-10-19T06:13:32;100346.94;;;9.11;100.00
39105;BME280;46464;51.154;13.812;2022-10-19T06:15:58;100353.22;;;9.10;100.00
39105;BME280;46464;51.154;13.812;2022-10-19T06:18:24;100345.28;;;9.05;100.00
39105;BME280;46464;51.154;13.812;2022-10-19T06:20:51;100350.44;;;9.13;100.00
39105;BME280;46464;51.154;13.812;2022-10-19T06:23:18;100352.97;;;9.19;100.00
39105;BME280;46464;51.154;13.812;2022-10-19T06:25:44;100361.00;;;9.20;100.00
39105;BME280;46464;51.154;13.812;2022-10-19T06:28:10;100358.38;;;9.17;100.00
39105;BME280;46464;51.154;13.812;2022-10-19T06:30:38;100357.38;;;9.23;100.00
39105;BME280;46464;51.154;13.812;2022-10-19T06:33:05;100361.00;;;9.20;100.00
39105;BME280;46464;51.154;13.812;2022-10-19T06:35:32;100377.97;;;9.21;100.00
39105;BME280;46464;51.154;13.812;2022-10-19T06:37:58;100378.72;;;9.26;100.00
39105;BME280;46464;51.154;13.812;2022-10-19T06:40:25;100381.28;;;9.31;100.00
39105;BME280;46464;51.154;13.812;2022-10-19T06:42:53;100385.78;;;9.30;100.00
39105;BME280;46464;51.154;13.812;2022-10-19T06:45:19;100388.53;;;9.27;100.00
39105;BME280;46464;51.154;13.812;2022-10-19T06:47:46;100384.09;;;9.26;100.00
39105;BME280;46464;51.154;13.812;2022-10-19T06:50:17;100391.16;;;9.29;100.00
39105;BME280;46464;51.154;13.812;2022-10-19T06:52:45;100386.56;;;9.34;100.00
39105;BME280;46464;51.154;13.812;2022-10-19T06:55:12;100383.66;;;9.43;100.00
39105;BME280;46464;51.154;13.812;2022-10-19T06:57:38;100383.53;;;9.48;100.00
39105;BME280;46464;51.154;13.812;2022-10-19T07:00:05;100388.69;;;9.56;100.00
39105;BME280;46464;51.154;13.812;2022-10-19T07:02:32;100393.03;;;9.61;100.00
39105;BME280;46464;51.154;13.812;2022-10-19T07:04:58;100395.56;;;9.66;100.00
39105;BME280;46464;51.154;13.812;2022-10-19T07:07:32;100391.09;;;9.65;100.00
39105;BME280;46464;51.154;13.812;2022-10-19T07:09:59;100399.03;;;9.69;100.00
39105;BME280;46464;51.154;13.812;2022-10-19T07:12:25;100398.06;;;9.74;100.00
39105;BME280;46464;51.154;13.812;2022-10-19T07:14:52;100401.59;;;9.74;100.00
39105;BME280;46464;51.154;13.812;2022-10-19T07:17:19;100403.28;;;9.78;100.00
39105;BME280;46464;51.154;13.812;2022-10-19T07:19:46;100410.53;;;9.75;100.00
39105;BME280;46464;51.154;13.812;2022-10-19T07:22:12;100406.91;;;9.76;100.00
39105;BME280;46464;51.154;13.812;2022-10-19T07:24:46;100405.03;;;9.79;100.00
39105;BME280;46464;51.154;13.812;2022-10-19T07:27:12;100397.03;;;9.78;100.00
39105;BME280;46464;51.154;13.812;2022-10-19T07:29:39;100405.25;;;9.72;100.00
39105;BME280;46464;51.154;13.812;2022-10-19T07:32:05;100413.19;;;9.76;100.00
39105;BME280;46464;51.154;13.812;2022-10-19T07:34:32;100408.69;;;9.77;100.00
39105;BME280;46464;51.154;13.812;2022-10-19T07:36:58;100419.31;;;9.81;100.00
39105;BME280;46464;51.154;13.812;2022-10-19T07:39:25;100417.59;;;9.79;100.00
39105;BME280;46464;51.154;13.812;2022-10-19T07:41:52;100424.69;;;9.81;100.00
39105;BME280;46464;51.154;13.812;2022-10-19T07:44:19;100422.81;;;9.83;100.00
39105;BME280;46464;51.154;13.812;2022-10-19T07:46:45;100418.28;;;9.85;100.00
39105;BME280;46464;51.154;13.812;2022-10-19T07:49:13;100422.03;;;9.80;100.00
39105;BME280;46464;51.154;13.812;2022-10-19T07:51:41;100416.63;;;9.81;100.00
39105;BME280;46464;51.154;13.812;2022-10-19T07:54:07;100422.03;;;9.80;100.00
39105;BME280;46464;51.154;13.812;2022-10-19T07:56:34;100416.56;;;9.83;100.00
39105;BME280;46464;51.154;13.812;2022-10-19T07:59:00;100409.38;;;9.83;100.00
39105;BME280;46464;51.154;13.812;2022-10-19T08:01:28;100414.69;;;9.87;100.00
39105;BME280;46464;51.154;13.812;2022-10-19T08:03:56;100424.34;;;9.92;100.00
39105;BME280;46464;51.154;13.812;2022-10-19T08:06:43;100426.13;;;9.93;100.00
39105;BME280;46464;51.154;13.812;2022-10-19T08:09:09;100427.66;;;10.02;100.00
39105;BME280;46464;51.154;13.812;2022-10-19T08:11:48;100428.56;;;10.02;100.00
39105;BME280;46464;51.154;13.812;2022-10-19T08:14:14;100434.69;;;10.08;100.00
39105;BME280;46464;51.154;13.812;2022-10-19T08:16:41;100432.69;;;10.14;100.00
39105;BME280;46464;51.154;13.812;2022-10-19T08:19:14;100434.56;;;10.11;100.00
39105;BME280;46464;51.154;13.812;2022-10-19T08:21:42;100437.31;;;10.09;100.00
39105;BME280;46464;51.154;13.812;2022-10-19T08:24:09;100447.09;;;10.12;100.00
39105;BME280;46464;51.154;13.812;2022-10-19T08:26:36;100448.06;;;10.09;100.00
39105;BME280;46464;51.154;13.812;2022-10-19T08:29:05;100445.38;;;10.09;100.00
39105;BME280;46464;51.154;13.812;2022-10-19T08:31:32;100456.00;;;10.14;100.00
39105;BME280;46464;51.154;13.812;2022-10-19T08:33:58;100447.81;;;10.17;100.00
39105;BME280;46464;51.154;13.812;2022-10-19T08:36:25;100448.72;;;10.17;100.00
39105;BME280;46464;51.154;13.812;2022-10-19T08:38:52;100448.72;;;10.17;100.00
39105;BME280;46464;51.154;13.812;2022-10-19T08:46:23;100448.22;;;10.36;100.00
39105;BME280;46464;51.154;13.812;2022-10-19T08:48:55;100442.63;;;10.44;100.00
39105;BME280;46464;51.154;13.812;2022-10-19T08:51:21;100445.25;;;10.45;100.00
39105;BME280;46464;51.154;13.812;2022-10-19T08:53:50;100451.59;;;10.44;100.00
39105;BME280;46464;51.154;13.812;2022-10-19T09:04:23;100442.03;;;10.64;100.00
39105;BME280;46464;51.154;13.812;2022-10-19T09:09:23;100441.88;;;10.69;100.00
39105;BME280;46464;51.154;13.812;2022-10-19T09:11:51;100435.34;;;10.77;100.00
39105;BME280;46464;51.154;13.812;2022-10-19T09:14:29;100445.06;;;10.81;100.00
39105;BME280;46464;51.154;13.812;2022-10-19T09:16:59;100433.31;;;10.86;100.00
39105;BME280;46464;51.154;13.812;2022-10-19T09:19:27;100442.19;;;10.88;100.00
39105;BME280;46464;51.154;13.812;2022-10-19T09:24:37;100436.69;;;10.92;100.00
39105;BME280;46464;51.154;13.812;2022-10-19T09:27:04;100432.09;;;10.96;100.00
39105;BME280;46464;51.154;13.812;2022-10-19T09:29:38;100430.09;;;11.03;100.00
39105;BME280;46464;51.154;13.812;2022-10-19T09:32:14;100432.59;;;11.09;100.00
39105;BME280;46464;51.154;13.812;2022-10-19T09:34:44;100434.56;;;11.02;100.00
39105;BME280;46464;51.154;13.812;2022-10-19T09:37:11;100432.94;;;10.98;100.00
39105;BME280;46464;51.154;13.812;2022-10-19T09:39:48;100445.59;;;10.94;100.00
39105;BME280;46464;51.154;13.812;2022-10-19T09:42:26;100439.16;;;10.98;100.00
39105;BME280;46464;51.154;13.812;2022-10-19T09:45:00;100449.00;;;11.00;100.00
39105;BME280;46464;51.154;13.812;2022-10-19T09:47:34;100439.16;;;10.98;100.00
39105;BME280;46464;51.154;13.812;2022-10-19T09:50:12;100444.34;;;11.05;100.00
39105;BME280;46464;51.154;13.812;2022-10-19T09:52:39;100453.16;;;11.10;100.00
39105;BME280;46464;51.154;13.812;2022-10-19T09:57:42;100452.56;;;11.00;99.68
39105;BME280;46464;51.154;13.812;2022-10-19T10:00:43;100455.31;;;10.98;99.46
39105;BME280;46464;51.154;13.812;2022-10-19T10:03:02;100461.38;;;11.05;99.87
39105;BME280;46464;51.154;13.812;2022-10-19T10:05:33;100463.69;;;11.18;100.00
39105;BME280;46464;51.154;13.812;2022-10-19T10:08:01;100461.78;;;11.20;100.00
39105;BME280;46464;51.154;13.812;2022-10-19T10:10:37;100457.06;;;11.28;99.31
39105;BME280;46464;51.154;13.812;2022-10-19T10:13:04;100458.63;;;11.35;97.30
39105;BME280;46464;51.154;13.812;2022-10-19T10:15:40;100455.59;;;11.44;99.08
39105;BME280;46464;51.154;13.812;2022-10-19T10:18:10;100462.69;;;11.47;97.68
39105;BME280;46464;51.154;13.812;2022-10-19T10:20:41;100454.19;;;11.61;100.00
39105;BME280;46464;51.154;13.812;2022-10-19T10:23:24;100464.09;;;11.59;97.90
39105;BME280;46464;51.154;13.812;2022-10-19T10:25:54;100462.78;;;11.71;95.85
39105;BME280;46464;51.154;13.812;2022-10-19T10:28:22;100462.84;;;11.69;91.40
39105;BME280;46464;51.154;13.812;2022-10-19T10:30:52;100460.72;;;11.79;92.78
39105;BME280;46464;51.154;13.812;2022-10-19T10:33:20;100464.09;;;11.86;92.69
39105;BME280;46464;51.154;13.812;2022-10-19T10:36:09;100450.50;;;11.89;91.07
39105;BME280;46464;51.154;13.812;2022-10-19T10:38:44;100451.44;;;11.88;88.21
39105;BME280;46464;51.154;13.812;2022-10-19T10:41:13;100445.50;;;11.78;86.32
39105;BME280;46464;51.154;13.812;2022-10-19T10:43:57;100447.03;;;11.60;87.34
39105;BME280;46464;51.154;13.812;2022-10-19T10:46:33;100457.75;;;11.61;86.67
39105;BME280;46464;51.154;13.812;2022-10-19T10:49:01;100454.19;;;11.61;87.80
39105;BME280;46464;51.154;13.812;2022-10-19T10:51:31;100452.22;;;11.65;89.12
39105;BME280;46464;51.154;13.812;2022-10-19T10:54:05;100449.66;;;11.61;88.71
39105;BME280;46464;51.154;13.812;2022-10-19T10:56:31;100453.50;;;11.54;87.52
39105;BME280;46464;51.154;13.812;2022-10-19T10:59:01;100441.16;;;11.49;85.11
39105;BME280;46464;51.154;13.812;2022-10-19T11:01:32;100446.53;;;11.49;86.42
39105;BME280;46464;51.154;13.812;2022-10-19T11:04:03;100442.63;;;11.57;87.51
39105;BME280;46464;51.154;13.812;2022-10-19T11:06:30;100442.44;;;11.63;85.57
39105;BME280;46464;51.154;13.812;2022-10-19T11:09:05;100446.75;;;11.68;84.87
39105;BME280;46464;51.154;13.812;2022-10-19T11:11:38;100457.03;;;11.56;82.90
39105;BME280;46464;51.154;13.812;2022-10-19T11:14:15;100463.38;;;11.54;82.58
39105;BME280;46464;51.154;13.812;2022-10-19T11:16:48;100463.47;;;11.51;84.81
39105;BME280;46464;51.154;13.812;2022-10-19T11:19:33;100468.19;;;11.44;81.56
39105;BME280;46464;51.154;13.812;2022-10-19T11:24:48;100461.53;;;11.27;81.46
39105;BME280;46464;51.154;13.812;2022-10-19T11:27:25;100457.25;;;11.22;82.18
39105;BME280;46464;51.154;13.812;2022-10-19T11:35:46;100467.53;;;11.09;82.44
39105;BME280;46464;51.154;13.812;2022-10-19T11:41:11;100461.00;;;11.16;86.74
39105;BME280;46464;51.154;13.812;2022-10-19T11:46:29;100457.53;;;11.41;81.29
39105;BME280;46464;51.154;13.812;2022-10-19T11:56:35;100449.03;;;11.53;78.05
39105;BME280;46464;51.154;13.812;2022-10-19T12:00:09;100444.84;;;11.44;78.70
39105;BME280;46464;51.154;13.812;2022-10-19T12:10:17;100435.97;;;11.42;78.14
39105;BME280;46464;51.154;13.812;2022-10-19T12:12:48;100440.56;;;11.39;77.76
39105;BME280;46464;51.154;13.812;2022-10-19T12:15:17;100432.50;;;11.39;79.25
39105;BME280;46464;51.154;13.812;2022-10-19T12:17:45;100428.84;;;11.40;79.45
39105;BME280;46464;51.154;13.812;2022-10-19T12:20:24;100427.25;;;11.34;77.85
39105;BME280;46464;51.154;13.812;2022-10-19T12:22:53;100426.28;;;11.37;78.80
39105;BME280;46464;51.154;13.812;2022-10-19T12:25:19;100426.38;;;11.34;78.50
39105;BME280;46464;51.154;13.812;2022-10-19T12:27:47;100421.81;;;11.36;79.03
39105;BME280;46464;51.154;13.812;2022-10-19T12:30:17;100424.63;;;11.33;80.04
39105;BME280;46464;51.154;13.812;2022-10-19T12:35:22;100426.06;;;11.43;78.98
39105;BME280;46464;51.154;13.812;2022-10-19T12:40:59;100412.91;;;11.34;78.34
39105;BME280;46464;51.154;13.812;2022-10-19T12:48:44;100420.59;;;11.19;79.62
39105;BME280;46464;51.154;13.812;2022-10-19T12:51:11;100412.59;;;11.16;80.04
39105;BME280;46464;51.154;13.812;2022-10-19T12:53:43;100415.22;;;11.19;79.86
39105;BME280;46464;51.154;13.812;2022-10-19T13:01:17;100415.94;;;11.24;79.94
39105;BME280;46464;51.154;13.812;2022-10-19T13:03:45;100422.19;;;11.25;80.66
39105;BME280;46464;51.154;13.812;2022-10-19T13:09:26;100422.44;;;11.17;82.61
39105;BME280;46464;51.154;13.812;2022-10-19T13:11:33;100415.22;;;11.19;82.42
39105;BME280;46464;51.154;13.812;2022-10-19T13:14:48;100405.84;;;11.31;80.59
39105;BME280;46464;51.154;13.812;2022-10-19T13:16:55;100404.84;;;11.34;80.43
39105;BME280;46464;51.154;13.812;2022-10-19T13:19:22;100399.44;;;11.35;80.80
39105;BME280;46464;51.154;13.812;2022-10-19T13:21:53;100394.78;;;11.40;80.19
39105;BME280;46464;51.154;13.812;2022-10-19T13:29:25;100393.66;;;11.46;79.88
39105;BME280;46464;51.154;13.812;2022-10-19T13:31:52;100392.66;;;11.50;79.74
39105;BME280;46464;51.154;13.812;2022-10-19T13:34:18;100389.69;;;11.58;79.99
39105;BME280;46464;51.154;13.812;2022-10-19T13:37:01;100389.69;;;11.58;79.81
39105;BME280;46464;51.154;13.812;2022-10-19T13:39:28;100391.16;;;11.67;80.62
39105;BME280;46464;51.154;13.812;2022-10-19T13:41:55;100385.94;;;11.62;80.24
39105;BME280;46464;51.154;13.812;2022-10-19T13:44:23;100387.69;;;11.63;80.56
39105;BME280;46464;51.154;13.812;2022-10-19T13:49:21;100384.03;;;11.66;78.31
39105;BME280;46464;51.154;13.812;2022-10-19T13:59:39;100380.47;;;11.65;81.19
39105;BME280;46464;51.154;13.812;2022-10-19T14:10:18;100383.59;;;11.53;80.31
39105;BME280;46464;51.154;13.812;2022-10-19T14:12:58;100373.75;;;11.52;82.31
39105;BME280;46464;51.154;13.812;2022-10-19T14:15:26;100382.09;;;11.44;83.01
39105;BME280;46464;51.154;13.812;2022-10-19T14:17:54;100370.41;;;11.45;82.95
39105;BME280;46464;51.154;13.812;2022-10-19T14:20:25;100367.75;;;11.43;82.73
39105;BME280;46464;51.154;13.812;2022-10-19T14:22:52;100362.50;;;11.40;82.71
39105;BME280;46464;51.154;13.812;2022-10-19T14:25:19;100367.81;;;11.42;82.75
39105;BME280;46464;51.154;13.812;2022-10-19T14:27:55;100364.19;;;11.43;81.72
39105;BME280;46464;51.154;13.812;2022-10-19T14:30:25;100356.97;;;11.43;81.85
39105;BME280;46464;51.154;13.812;2022-10-19T14:32:53;100357.16;;;11.39;81.20
39105;BME280;46464;51.154;13.812;2022-10-19T14:35:27;100351.88;;;11.36;82.69
39105;BME280;46464;51.154;13.812;2022-10-19T14:37:54;100363.47;;;11.38;81.58